sensor_id;sensor_type;location;lat;lon;timestamp;pressure;altitude;pressure_sealevel;temperature;humidity
14343;BME280;7255;53.596;9.960;2023-04-01T00:00:45;99274.22;;;11.29;nan
14343;BME280;7255;53.596;9.960;2023-04-01T00:03:13;99277.72;;;11.35;nan
14343;BME280;7255;53.596;9.960;2023-04-01T00:05:39;99280.94;;;11.37;nan
14343;BME280;7255;53.596;9.960;2023-04-01T00:08:06;99282.59;;;11.38;nan
14343;BME280;7255;53.596;9.960;2023-04-01T00:10:32;99281.50;;;11.34;nan
14343;BME280;7255;53.596;9.960;2023-04-01T00:12:58;99280.41;;;11.30;nan
14343;BME280;7255;53.596;9.960;2023-04-01T00:15:25;99278.75;;;11.18;nan
14343;BME280;7255;53.596;9.960;2023-04-01T00:17:51;99276.09;;;11.24;nan
14343;BME280;7255;53.596;9.960;2023-04-01T00:20:19;99274.75;;;11.26;nan
14343;BME280;7255;53.596;9.960;2023-04-01T00:22:45;99275.00;;;11.30;nan
14343;BME280;7255;53.596;9.960;2023-04-01T00:25:13;99287.41;;;11.31;nan
14343;BME280;7255;53.596;9.960;2023-04-01T00:27:39;99278.28;;;11.32;nan
14343;BME280;7255;53.596;9.960;2023-04-01T00:30:07;99276.66;;;11.31;nan
14343;BME280;7255;53.596;9.960;2023-04-01T00:32:33;99282.03;;;11.31;nan
14343;BME280;7255;53.596;9.960;2023-04-01T00:35:00;99283.09;;;11.25;nan
14343;BME280;7255;53.596;9.960;2023-04-01T00:37:28;99284.69;;;11.26;nan
14343;BME280;7255;53.596;9.960;2023-04-01T00:39:55;99273.66;;;11.22;nan
14343;BME280;7255;53.596;9.960;2023-04-01T00:42:22;99278.22;;;11.22;nan
14343;BME280;7255;53.596;9.960;2023-04-01T00:44:50;99278.75;;;11.18;nan
14343;BME280;7255;53.596;9.960;2023-04-01T00:47:17;99281.97;;;11.21;nan
14343;BME280;7255;53.596;9.960;2023-04-01T00:49:45;99281.69;;;11.17;nan
14343;BME280;7255;53.596;9.960;2023-04-01T00:52:14;99276.87;;;11.14;nan
14343;BME280;7255;53.596;9.960;2023-04-01T00:54:46;99278.19;;;11.11;nan
14343;BME280;7255;53.596;9.960;2023-04-01T00:57:17;99271.72;;;11.07;nan
14343;BME280;7255;53.596;9.960;2023-04-01T00:59:48;99273.06;;;11.05;nan
14343;BME280;7255;53.596;9.960;2023-04-01T01:02:16;99272.25;;;11.04;nan
14343;BME280;7255;53.596;9.960;2023-04-01T01:04:43;99275.47;;;11.06;nan
14343;BME280;7255;53.596;9.960;2023-04-01T01:07:20;99280.59;;;11.03;nan
14343;BME280;7255;53.596;9.960;2023-04-01T01:09:58;99274.94;;;10.99;nan
14343;BME280;7255;53.596;9.960;2023-04-01T01:12:34;99283.47;;;10.91;nan
14343;BME280;7255;53.596;9.960;2023-04-01T01:15:10;99282.41;;;10.87;nan
14343;BME280;7255;53.596;9.960;2023-04-01T01:17:44;99293.13;;;10.87;nan
14343;BME280;7255;53.596;9.960;2023-04-01T01:20:42;99289.09;;;10.84;nan
14343;BME280;7255;53.596;9.960;2023-04-01T01:23:27;99282.41;;;10.87;nan
14343;BME280;7255;53.596;9.960;2023-04-01T01:26:15;99290.47;;;10.92;nan
14343;BME280;7255;53.596;9.960;2023-04-01T01:28:59;99282.97;;;10.94;nan
14343;BME280;7255;53.596;9.960;2023-04-01T01:31:34;99277.03;;;10.97;nan
14343;BME280;7255;53.596;9.960;2023-04-01T01:34:11;99280.31;;;10.99;nan
14343;BME280;7255;53.596;9.960;2023-04-01T01:36:44;99273.31;;;10.98;nan
14343;BME280;7255;53.596;9.960;2023-04-01T01:39:15;99289.44;;;10.98;nan
14343;BME280;7255;53.596;9.960;2023-04-01T01:41:43;99282.41;;;10.97;nan
14343;BME280;7255;53.596;9.960;2023-04-01T01:44:13;99286.72;;;10.93;nan
14343;BME280;7255;53.596;9.960;2023-04-01T01:46:43;99282.13;;;10.93;nan
14343;BME280;7255;53.596;9.960;2023-04-01T01:49:12;99288.84;;;10.91;nan
14343;BME280;7255;53.596;9.960;2023-04-01T01:51:39;99292.63;;;10.90;nan
14343;BME280;7255;53.596;9.960;2023-04-01T01:54:13;99295.28;;;10.85;nan
14343;BME280;7255;53.596;9.960;2023-04-01T01:56:41;99297.44;;;10.83;nan
14343;BME280;7255;53.596;9.960;2023-04-01T01:59:11;99296.88;;;10.86;nan
14343;BME280;7255;53.596;9.960;2023-04-01T02:01:41;99301.97;;;10.82;nan
14343;BME280;7255;53.596;9.960;2023-04-01T02:04:10;99292.78;;;10.73;nan
14343;BME280;7255;53.596;9.960;2023-04-01T02:06:41;99299.00;;;10.73;nan
14343;BME280;7255;53.596;9.960;2023-04-01T02:09:10;99295.28;;;10.85;nan
14343;BME280;7255;53.596;9.960;2023-04-01T02:11:41;99303.31;;;10.79;nan
14343;BME280;7255;53.596;9.960;2023-04-01T02:14:11;99287.75;;;10.87;nan
14343;BME280;7255;53.596;9.960;2023-04-01T02:16:43;99304.97;;;10.91;nan
14343;BME280;7255;53.596;9.960;2023-04-01T02:19:13;99306.06;;;10.95;nan
14343;BME280;7255;53.596;9.960;2023-04-01T02:21:42;99298.81;;;10.90;nan
14343;BME280;7255;53.596;9.960;2023-04-01T02:24:12;99295.56;;;10.88;nan
14343;BME280;7255;53.596;9.960;2023-04-01T02:26:41;99304.97;;;10.91;nan
14343;BME280;7255;53.596;9.960;2023-04-01T02:29:09;99308.75;;;10.90;nan
14343;BME280;7255;53.596;9.960;2023-04-01T02:31:37;99307.19;;;10.99;nan
14343;BME280;7255;53.596;9.960;2023-04-01T02:34:04;99307.72;;;11.06;nan
14343;BME280;7255;53.596;9.960;2023-04-01T02:36:31;99308.28;;;11.13;nan
14343;BME280;7255;53.596;9.960;2023-04-01T02:38:58;99305.06;;;11.11;nan
14343;BME280;7255;53.596;9.960;2023-04-01T02:41:27;99311.50;;;11.05;nan
14343;BME280;7255;53.596;9.960;2023-04-01T02:43:55;99315.72;;;10.91;nan
14343;BME280;7255;53.596;9.960;2023-04-01T02:46:22;99312.53;;;10.94;nan
14343;BME280;7255;53.596;9.960;2023-04-01T02:48:48;99317.28;;;10.82;nan
14343;BME280;7255;53.596;9.960;2023-04-01T02:51:15;99309.84;;;10.94;nan
14343;BME280;7255;53.596;9.960;2023-04-01T02:53:41;99314.94;;;11.01;nan
14343;BME280;7255;53.596;9.960;2023-04-01T02:56:07;99325.66;;;10.90;nan
14343;BME280;7255;53.596;9.960;2023-04-01T02:58:34;99326.75;;;10.94;nan
14343;BME280;7255;53.596;9.960;2023-04-01T03:01:01;99322.16;;;10.85;nan
14343;BME280;7255;53.596;9.960;2023-04-01T03:03:28;99333.50;;;10.54;nan
14343;BME280;7255;53.596;9.960;2023-04-01T03:05:54;99320.69;;;10.67;nan
14343;BME280;7255;53.596;9.960;2023-04-01T03:08:21;99331.22;;;10.73;nan
14343;BME280;7255;53.596;9.960;2023-04-01T03:10:47;99328.53;;;10.78;nan
14343;BME280;7255;53.596;9.960;2023-04-01T03:13:14;99322.44;;;10.88;nan
14343;BME280;7255;53.596;9.960;2023-04-01T03:15:40;99330.00;;;10.96;nan
14343;BME280;7255;53.596;9.960;2023-04-01T03:18:08;99330.78;;;10.97;nan
14343;BME280;7255;53.596;9.960;2023-04-01T03:20:34;99335.12;;;11.03;nan
14343;BME280;7255;53.596;9.960;2023-04-01T03:23:01;99340.53;;;11.03;nan
14343;BME280;7255;53.596;9.960;2023-04-01T03:25:27;99338.28;;;10.85;nan
14343;BME280;7255;53.596;9.960;2023-04-01T03:27:55;99333.69;;;10.85;nan
14343;BME280;7255;53.596;9.960;2023-04-01T03:30:24;99336.63;;;10.84;nan
14343;BME280;7255;53.596;9.960;2023-04-01T03:32:51;99333.13;;;10.78;nan
14343;BME280;7255;53.596;9.960;2023-04-01T03:35:18;99333.62;;;10.75;nan
14343;BME280;7255;53.596;9.960;2023-04-01T03:37:45;99336.94;;;10.87;nan
14343;BME280;7255;53.596;9.960;2023-04-01T03:40:11;99333.91;;;10.78;nan
14343;BME280;7255;53.596;9.960;2023-04-01T03:42:38;99339.53;;;10.72;nan
14343;BME280;7255;53.596;9.960;2023-04-01T03:45:05;99346.81;;;10.76;nan
14343;BME280;7255;53.596;9.960;2023-04-01T03:47:31;99339.38;;;10.89;nan
14343;BME280;7255;53.596;9.960;2023-04-01T03:49:58;99351.44;;;10.86;nan
14343;BME280;7255;53.596;9.960;2023-04-01T03:52:26;99352.63;;;10.63;nan
14343;BME280;7255;53.596;9.960;2023-04-01T03:54:52;99346.69;;;10.56;nan
14343;BME280;7255;53.596;9.960;2023-04-01T03:57:18;99352.63;;;10.63;nan
14343;BME280;7255;53.596;9.960;2023-04-01T03:59:45;99357.78;;;10.70;nan
14343;BME280;7255;53.596;9.960;2023-04-01T04:02:11;99355.28;;;10.58;nan
14343;BME280;7255;53.596;9.960;2023-04-01T04:04:38;99352.84;;;10.56;nan
14343;BME280;7255;53.596;9.960;2023-04-01T04:07:04;99360.66;;;10.58;nan
14343;BME280;7255;53.596;9.960;2023-04-01T04:09:32;99355.78;;;10.55;nan
14343;BME280;7255;53.596;9.960;2023-04-01T04:11:59;99364.12;;;10.53;nan
14343;BME280;7255;53.596;9.960;2023-04-01T04:14:26;99368.75;;;10.63;nan
14343;BME280;7255;53.596;9.960;2023-04-01T04:16:52;99370.81;;;10.51;nan
14343;BME280;7255;53.596;9.960;2023-04-01T04:19:18;99369.25;;;10.60;nan
14343;BME280;7255;53.596;9.960;2023-04-01T04:21:45;99373.38;;;10.73;nan
14343;BME280;7255;53.596;9.960;2023-04-01T04:24:11;99371.69;;;10.62;nan
14343;BME280;7255;53.596;9.960;2023-04-01T04:26:39;99367.56;;;10.49;nan
14343;BME280;7255;53.596;9.960;2023-04-01T04:29:05;99373.97;;;10.43;nan
14343;BME280;7255;53.596;9.960;2023-04-01T04:31:31;99378.22;;;10.38;nan
14343;BME280;7255;53.596;9.960;2023-04-01T04:33:59;99366.91;;;10.31;nan
14343;BME280;7255;53.596;9.960;2023-04-01T04:36:26;99373.78;;;10.22;nan
14343;BME280;7255;53.596;9.960;2023-04-01T04:38:52;99380.75;;;10.23;nan
14343;BME280;7255;53.596;9.960;2023-04-01T04:41:19;99386.91;;;10.24;nan
14343;BME280;7255;53.596;9.960;2023-04-01T04:43:50;99390.38;;;10.19;nan
14343;BME280;7255;53.596;9.960;2023-04-01T04:46:17;99385.31;;;10.23;nan
14343;BME280;7255;53.596;9.960;2023-04-01T04:48:44;99387.75;;;10.24;nan
14343;BME280;7255;53.596;9.960;2023-04-01T04:51:13;99387.75;;;10.24;nan
14343;BME280;7255;53.596;9.960;2023-04-01T04:53:40;99393.75;;;10.31;nan
14343;BME280;7255;53.596;9.960;2023-04-01T04:56:06;99393.63;;;10.21;nan
14343;BME280;7255;53.596;9.960;2023-04-01T04:58:32;99389.34;;;10.25;nan
14343;BME280;7255;53.596;9.960;2023-04-01T05:01:07;99399.78;;;10.21;nan
14343;BME280;7255;53.596;9.960;2023-04-01T05:03:33;99405.28;;;10.32;nan
14343;BME280;7255;53.596;9.960;2023-04-01T05:05:59;99406.37;;;10.09;nan
14343;BME280;7255;53.596;9.960;2023-04-01T05:08:25;99407.78;;;10.16;nan
14343;BME280;7255;53.596;9.960;2023-04-01T05:10:52;99410.12;;;10.08;nan
14343;BME280;7255;53.596;9.960;2023-04-01T05:13:18;99401.91;;;10.19;nan
14343;BME280;7255;53.596;9.960;2023-04-01T05:15:44;99409.00;;;10.03;nan
14343;BME280;7255;53.596;9.960;2023-04-01T05:18:12;99412.28;;;10.06;nan
14343;BME280;7255;53.596;9.960;2023-04-01T05:20:38;99419.13;;;10.24;nan
14343;BME280;7255;53.596;9.960;2023-04-01T05:23:05;99419.53;;;9.83;nan
14343;BME280;7255;53.596;9.960;2023-04-01T05:25:31;99407.25;;;9.65;nan
14343;BME280;7255;53.596;9.960;2023-04-01T05:27:57;99424.59;;;9.35;nan
14343;BME280;7255;53.596;9.960;2023-04-01T05:30:23;99414.28;;;9.05;nan
14343;BME280;7255;53.596;9.960;2023-04-01T05:32:50;99425.66;;;8.78;nan
14343;BME280;7255;53.596;9.960;2023-04-01T05:35:18;99425.97;;;8.82;nan
14343;BME280;7255;53.596;9.960;2023-04-01T05:37:44;99438.81;;;8.63;nan
14343;BME280;7255;53.596;9.960;2023-04-01T05:40:11;99428.72;;;8.53;nan
14343;BME280;7255;53.596;9.960;2023-04-01T05:42:37;99435.50;;;8.27;nan
14343;BME280;7255;53.596;9.960;2023-04-01T05:45:04;99435.50;;;8.27;nan
14343;BME280;7255;53.596;9.960;2023-04-01T05:47:30;99443.63;;;8.32;nan
14343;BME280;7255;53.596;9.960;2023-04-01T05:49:57;99443.91;;;8.19;nan
14343;BME280;7255;53.596;9.960;2023-04-01T05:52:24;99451.84;;;8.14;nan
14343;BME280;7255;53.596;9.960;2023-04-01T05:54:51;99441.91;;;7.97;nan
14343;BME280;7255;53.596;9.960;2023-04-01T05:57:17;99450.78;;;7.86;nan
14343;BME280;7255;53.596;9.960;2023-04-01T05:59:43;99449.63;;;7.82;nan
14343;BME280;7255;53.596;9.960;2023-04-01T06:02:10;99464.78;;;8.05;nan
14343;BME280;7255;53.596;9.960;2023-04-01T06:04:38;99457.06;;;7.80;nan
14343;BME280;7255;53.596;9.960;2023-04-01T06:07:11;99456.88;;;7.69;nan
14343;BME280;7255;53.596;9.960;2023-04-01T06:09:39;99464.12;;;7.57;nan
14343;BME280;7255;53.596;9.960;2023-04-01T06:12:24;99469.22;;;7.47;nan
14343;BME280;7255;53.596;9.960;2023-04-01T06:15:03;99463.53;;;7.43;nan
14343;BME280;7255;53.596;9.960;2023-04-01T06:17:44;99475.53;;;7.41;nan
14343;BME280;7255;53.596;9.960;2023-04-01T06:20:19;99468.53;;;7.40;nan
14343;BME280;7255;53.596;9.960;2023-04-01T06:23:06;99467.84;;;7.32;nan
14343;BME280;7255;53.596;9.960;2023-04-01T06:25:56;99469.84;;;7.37;nan
14343;BME280;7255;53.596;9.960;2023-04-01T06:28:47;99470.44;;;7.27;nan
14343;BME280;7255;53.596;9.960;2023-04-01T06:31:34;99475.28;;;7.07;nan
14343;BME280;7255;53.596;9.960;2023-04-01T06:34:19;99492.00;;;7.14;nan
14343;BME280;7255;53.596;9.960;2023-04-01T06:36:56;99496.31;;;7.27;nan
14343;BME280;7255;53.596;9.960;2023-04-01T06:39:34;99484.00;;;7.02;nan
14343;BME280;7255;53.596;9.960;2023-04-01T06:42:32;99499.94;;;7.09;nan
14343;BME280;7255;53.596;9.960;2023-04-01T06:45:10;99505.63;;;7.12;nan
14343;BME280;7255;53.596;9.960;2023-04-01T06:47:49;99506.97;;;7.03;nan
14343;BME280;7255;53.596;9.960;2023-04-01T06:50:24;99507.59;;;7.17;nan
14343;BME280;7255;53.596;9.960;2023-04-01T06:52:58;99503.88;;;7.18;nan
14343;BME280;7255;53.596;9.960;2023-04-01T06:55:30;99519.75;;;7.01;nan
14343;BME280;7255;53.596;9.960;2023-04-01T06:58:03;99510.47;;;6.92;nan
14343;BME280;7255;53.596;9.960;2023-04-01T07:00:33;99515.56;;;6.82;nan
14343;BME280;7255;53.596;9.960;2023-04-01T07:03:16;99532.75;;;6.86;nan
14343;BME280;7255;53.596;9.960;2023-04-01T07:05:44;99533.81;;;6.97;nan
14343;BME280;7255;53.596;9.960;2023-04-01T07:08:13;99542.41;;;6.99;nan
14343;BME280;7255;53.596;9.960;2023-04-01T07:10:45;99536.81;;;6.88;nan
14343;BME280;7255;53.596;9.960;2023-04-01T07:13:18;99537.88;;;6.99;nan
14343;BME280;7255;53.596;9.960;2023-04-01T07:15:54;99541.72;;;7.15;nan
14343;BME280;7255;53.596;9.960;2023-04-01T07:18:31;99560.31;;;7.10;nan
14343;BME280;7255;53.596;9.960;2023-04-01T07:20:58;99559.59;;;7.03;nan
14343;BME280;7255;53.596;9.960;2023-04-01T07:23:28;99556.78;;;6.98;nan
14343;BME280;7255;53.596;9.960;2023-04-01T07:26:00;99566.75;;;6.90;nan
14343;BME280;7255;53.596;9.960;2023-04-01T07:28:30;99551.87;;;6.71;nan
14343;BME280;7255;53.596;9.960;2023-04-01T07:31:07;99569.13;;;6.68;nan
14343;BME280;7255;53.596;9.960;2023-04-01T07:33:43;99563.16;;;6.85;nan
14343;BME280;7255;53.596;9.960;2023-04-01T07:36:16;99581.16;;;6.89;nan
14343;BME280;7255;53.596;9.960;2023-04-01T07:38:55;99579.53;;;6.88;nan
14343;BME280;7255;53.596;9.960;2023-04-01T07:41:32;99581.91;;;6.66;nan
14343;BME280;7255;53.596;9.960;2023-04-01T07:44:11;99582.00;;;6.60;nan
14343;BME280;7255;53.596;9.960;2023-04-01T07:46:54;99599.56;;;6.67;nan
14343;BME280;7255;53.596;9.960;2023-04-01T07:49:26;99583.25;;;6.57;nan
14343;BME280;7255;53.596;9.960;2023-04-01T07:52:00;99589.44;;;6.58;nan
14343;BME280;7255;53.596;9.960;2023-04-01T07:54:33;99592.94;;;6.70;nan
14343;BME280;7255;53.596;9.960;2023-04-01T07:57:05;99616.19;;;6.81;nan
14343;BME280;7255;53.596;9.960;2023-04-01T07:59:40;99600.44;;;6.61;nan
14343;BME280;7255;53.596;9.960;2023-04-01T08:02:23;99619.37;;;6.60;nan
14343;BME280;7255;53.596;9.960;2023-04-01T08:04:57;99620.09;;;6.67;nan
14343;BME280;7255;53.596;9.960;2023-04-01T08:07:36;99622.16;;;6.65;nan
14343;BME280;7255;53.596;9.960;2023-04-01T08:10:11;99631.66;;;6.61;nan
14343;BME280;7255;53.596;9.960;2023-04-01T08:12:48;99620.13;;;6.30;nan
14343;BME280;7255;53.596;9.960;2023-04-01T08:15:21;99626.00;;;6.20;nan
14343;BME280;7255;53.596;9.960;2023-04-01T08:18:00;99613.19;;;6.29;nan
14343;BME280;7255;53.596;9.960;2023-04-01T08:20:33;99625.94;;;6.27;nan
14343;BME280;7255;53.596;9.960;2023-04-01T08:23:06;99652.75;;;6.50;nan
14343;BME280;7255;53.596;9.960;2023-04-01T08:25:37;99653.75;;;6.68;nan
14343;BME280;7255;53.596;9.960;2023-04-01T08:28:11;99663.72;;;6.91;nan
14343;BME280;7255;53.596;9.960;2023-04-01T08:30:43;99665.44;;;6.85;nan
14343;BME280;7255;53.596;9.960;2023-04-01T08:33:15;99666.25;;;6.86;nan
14343;BME280;7255;53.596;9.960;2023-04-01T08:35:47;99679.38;;;6.87;nan
14343;BME280;7255;53.596;9.960;2023-04-01T08:38:19;99681.16;;;6.75;nan
14343;BME280;7255;53.596;9.960;2023-04-01T08:41:12;99679.88;;;6.78;nan
14343;BME280;7255;53.596;9.960;2023-04-01T08:43:53;99676.28;;;6.72;nan
14343;BME280;7255;53.596;9.960;2023-04-01T08:46:56;99685.94;;;6.54;nan
14343;BME280;7255;53.596;9.960;2023-04-01T08:49:42;99686.81;;;6.48;nan
14343;BME280;7255;53.596;9.960;2023-04-01T08:52:28;99694.09;;;6.60;nan
14343;BME280;7255;53.596;9.960;2023-04-01T08:55:11;99700.78;;;6.50;nan
14343;BME280;7255;53.596;9.960;2023-04-01T08:57:49;99713.66;;;6.72;nan
14343;BME280;7255;53.596;9.960;2023-04-01T09:00:25;99694.53;;;6.57;nan
14343;BME280;7255;53.596;9.960;2023-04-01T09:06:29;99709.94;;;6.73;nan
14343;BME280;7255;53.596;9.960;2023-04-01T09:09:32;99722.16;;;6.81;nan
14343;BME280;7255;53.596;9.960;2023-04-01T09:12:35;99714.31;;;6.86;nan
14343;BME280;7255;53.596;9.960;2023-04-01T09:18:27;99735.69;;;7.16;nan
14343;BME280;7255;53.596;9.960;2023-04-01T09:21:11;99739.22;;;7.28;nan
14343;BME280;7255;53.596;9.960;2023-04-01T09:23:59;99754.81;;;7.31;nan
14343;BME280;7255;53.596;9.960;2023-04-01T09:26:50;99739.28;;;6.91;nan
14343;BME280;7255;53.596;9.960;2023-04-01T09:29:34;99763.47;;;6.97;nan
14343;BME280;7255;53.596;9.960;2023-04-01T09:32:24;99750.53;;;7.12;nan
14343;BME280;7255;53.596;9.960;2023-04-01T09:34:57;99758.75;;;7.10;nan
14343;BME280;7255;53.596;9.960;2023-04-01T09:37:35;99751.31;;;6.82;nan
14343;BME280;7255;53.596;9.960;2023-04-01T09:40:18;99772.81;;;7.06;nan
14343;BME280;7255;53.596;9.960;2023-04-01T09:43:05;99782.97;;;7.16;nan
14343;BME280;7255;53.596;9.960;2023-04-01T09:45:41;99780.34;;;7.27;nan
14343;BME280;7255;53.596;9.960;2023-04-01T09:48:19;99791.19;;;7.14;nan
14343;BME280;7255;53.596;9.960;2023-04-01T09:50:53;99781.66;;;6.88;nan
14343;BME280;7255;53.596;9.960;2023-04-01T09:53:36;99779.06;;;7.00;nan
14343;BME280;7255;53.596;9.960;2023-04-01T09:56:27;99781.59;;;6.94;nan
14343;BME280;7255;53.596;9.960;2023-04-01T09:59:35;99791.16;;;6.84;nan
14343;BME280;7255;53.596;9.960;2023-04-01T10:02:43;99799.34;;;7.19;nan
14343;BME280;7255;53.596;9.960;2023-04-01T10:05:32;99794.63;;;7.03;nan
14343;BME280;7255;53.596;9.960;2023-04-01T10:08:33;99799.09;;;7.09;nan
14343;BME280;7255;53.596;9.960;2023-04-01T10:11:22;99801.31;;;6.93;nan
14343;BME280;7255;53.596;9.960;2023-04-01T10:14:13;99810.66;;;7.03;nan
14343;BME280;7255;53.596;9.960;2023-04-01T10:17:06;99807.00;;;6.97;nan
14343;BME280;7255;53.596;9.960;2023-04-01T10:20:04;99811.37;;;7.10;nan
14343;BME280;7255;53.596;9.960;2023-04-01T10:26:04;99823.38;;;7.38;nan
14343;BME280;7255;53.596;9.960;2023-04-01T10:31:58;99834.72;;;7.51;nan
14343;BME280;7255;53.596;9.960;2023-04-01T10:35:03;99845.28;;;7.58;nan
14343;BME280;7255;53.596;9.960;2023-04-01T10:37:49;99846.94;;;7.59;nan
14343;BME280;7255;53.596;9.960;2023-04-01T10:40:37;99857.25;;;7.25;nan
14343;BME280;7255;53.596;9.960;2023-04-01T10:43:25;99854.09;;;7.47;nan
14343;BME280;7255;53.596;9.960;2023-04-01T10:46:21;99857.88;;;7.39;nan
14343;BME280;7255;53.596;9.960;2023-04-01T10:52:23;99867.59;;;7.52;nan
14343;BME280;7255;53.596;9.960;2023-04-01T10:55:09;99870.41;;;7.57;nan
14343;BME280;7255;53.596;9.960;2023-04-01T10:58:08;99874.56;;;7.83;nan
14343;BME280;7255;53.596;9.960;2023-04-01T11:01:08;99870.66;;;7.37;nan
14343;BME280;7255;53.596;9.960;2023-04-01T11:07:05;99872.50;;;7.55;nan
14343;BME280;7255;53.596;9.960;2023-04-01T11:10:06;99875.31;;;7.60;nan
14343;BME280;7255;53.596;9.960;2023-04-01T11:13:02;99886.16;;;7.47;nan
14343;BME280;7255;53.596;9.960;2023-04-01T11:16:00;99878.81;;;7.42;nan
14343;BME280;7255;53.596;9.960;2023-04-01T11:18:58;99889.03;;;7.45;nan
14343;BME280;7255;53.596;9.960;2023-04-01T11:21:47;99898.66;;;7.35;nan
14343;BME280;7255;53.596;9.960;2023-04-01T11:24:50;99912.25;;;7.33;nan
14343;BME280;7255;53.596;9.960;2023-04-01T11:27:35;99910.06;;;7.42;nan
14343;BME280;7255;53.596;9.960;2023-04-01T11:30:20;99919.19;;;7.34;nan
14343;BME280;7255;53.596;9.960;2023-04-01T11:32:54;99916.47;;;7.22;nan
14343;BME280;7255;53.596;9.960;2023-04-01T11:35:39;99919.34;;;7.21;nan
14343;BME280;7255;53.596;9.960;2023-04-01T11:38:25;99917.94;;;7.00;nan
14343;BME280;7255;53.596;9.960;2023-04-01T11:40:58;99922.06;;;6.96;nan
14343;BME280;7255;53.596;9.960;2023-04-01T11:43:30;99911.94;;;6.79;nan
14343;BME280;7255;53.596;9.960;2023-04-01T11:46:03;99938.84;;;7.03;nan
14343;BME280;7255;53.596;9.960;2023-04-01T11:48:40;99935.06;;;7.10;nan
14343;BME280;7255;53.596;9.960;2023-04-01T11:51:27;99938.56;;;6.92;nan
14343;BME280;7255;53.596;9.960;2023-04-01T11:54:04;99941.47;;;6.84;nan
14343;BME280;7255;53.596;9.960;2023-04-01T11:56:49;99954.13;;;6.96;nan
14343;BME280;7255;53.596;9.960;2023-04-01T11:59:39;99950.41;;;6.97;nan
14343;BME280;7255;53.596;9.960;2023-04-01T12:02:16;99966.75;;;7.07;nan
14343;BME280;7255;53.596;9.960;2023-04-01T12:05:04;99965.56;;;7.03;nan
14343;BME280;7255;53.596;9.960;2023-04-01T12:07:50;99968.53;;;6.94;nan
14343;BME280;7255;53.596;9.960;2023-04-01T12:10:20;99973.88;;;6.94;nan
14343;BME280;7255;53.596;9.960;2023-04-01T12:12:55;99990.09;;;7.18;nan
14343;BME280;7255;53.596;9.960;2023-04-01T12:15:32;99979.59;;;6.98;nan
14343;BME280;7255;53.596;9.960;2023-04-01T12:18:06;99989.53;;;6.84;nan
14343;BME280;7255;53.596;9.960;2023-04-01T12:20:45;99978.09;;;6.77;nan
14343;BME280;7255;53.596;9.960;2023-04-01T12:23:30;100001.00;;;6.91;nan
14343;BME280;7255;53.596;9.960;2023-04-01T12:26:25;99990.03;;;6.74;nan
14343;BME280;7255;53.596;9.960;2023-04-01T12:29:08;99983.59;;;6.57;nan
14343;BME280;7255;53.596;9.960;2023-04-01T12:31:47;100016.75;;;6.74;nan
14343;BME280;7255;53.596;9.960;2023-04-01T12:34:38;100003.19;;;6.76;nan
14343;BME280;7255;53.596;9.960;2023-04-01T12:37:13;100012.31;;;6.62;nan
14343;BME280;7255;53.596;9.960;2023-04-01T12:39:58;100011.47;;;6.61;nan
14343;BME280;7255;53.596;9.960;2023-04-01T12:42:40;100028.22;;;6.75;nan
14343;BME280;7255;53.596;9.960;2023-04-01T12:45:37;100026.16;;;6.77;nan
14343;BME280;7255;53.596;9.960;2023-04-01T12:48:21;100027.88;;;6.65;nan
14343;BME280;7255;53.596;9.960;2023-04-01T12:51:19;100033.37;;;6.45;nan
14343;BME280;7255;53.596;9.960;2023-04-01T12:54:09;100031.41;;;6.27;nan
14343;BME280;7255;53.596;9.960;2023-04-01T12:56:44;100027.75;;;6.21;nan
14343;BME280;7255;53.596;9.960;2023-04-01T12:59:42;100036.38;;;6.16;nan
14343;BME280;7255;53.596;9.960;2023-04-01T13:02:13;100044.16;;;6.18;nan
14343;BME280;7255;53.596;9.960;2023-04-01T13:05:01;100053.09;;;6.37;nan
14343;BME280;7255;53.596;9.960;2023-04-01T13:07:41;100056.41;;;6.32;nan
14343;BME280;7255;53.596;9.960;2023-04-01T13:10:20;100068.69;;;6.40;nan
14343;BME280;7255;53.596;9.960;2023-04-01T13:13:31;100064.56;;;6.44;nan
14343;BME280;7255;53.596;9.960;2023-04-01T13:16:06;100067.09;;;6.32;nan
14343;BME280;7255;53.596;9.960;2023-04-01T13:18:52;100066.63;;;6.35;nan
14343;BME280;7255;53.596;9.960;2023-04-01T13:21:29;100076.47;;;6.42;nan
14343;BME280;7255;53.596;9.960;2023-04-01T13:24:03;100064.25;;;6.21;nan
14343;BME280;7255;53.596;9.960;2023-04-01T13:26:39;100081.44;;;6.38;nan
14343;BME280;7255;53.596;9.960;2023-04-01T13:29:11;100079.84;;;6.24;nan
14343;BME280;7255;53.596;9.960;2023-04-01T13:31:55;100086.91;;;5.98;nan
14343;BME280;7255;53.596;9.960;2023-04-01T13:34:35;100079.91;;;6.04;nan
14343;BME280;7255;53.596;9.960;2023-04-01T13:37:18;100088.13;;;6.02;nan
14343;BME280;7255;53.596;9.960;2023-04-01T13:42:44;100087.25;;;6.22;nan
14343;BME280;7255;53.596;9.960;2023-04-01T13:45:15;100111.50;;;6.07;nan
14343;BME280;7255;53.596;9.960;2023-04-01T13:48:09;100112.31;;;6.07;nan
14343;BME280;7255;53.596;9.960;2023-04-01T13:54:09;100121.38;;;6.06;nan
14343;BME280;7255;53.596;9.960;2023-04-01T13:56:48;100125.06;;;6.05;nan
14343;BME280;7255;53.596;9.960;2023-04-01T14:02:37;100129.97;;;5.95;nan
14343;BME280;7255;53.596;9.960;2023-04-01T14:05:25;100135.72;;;5.92;nan
14343;BME280;7255;53.596;9.960;2023-04-01T14:08:02;100140.66;;;6.08;nan
14343;BME280;7255;53.596;9.960;2023-04-01T14:10:37;100159.88;;;6.30;nan
14343;BME280;7255;53.596;9.960;2023-04-01T14:13:10;100161.06;;;6.41;nan
14343;BME280;7255;53.596;9.960;2023-04-01T14:15:47;100157.34;;;6.35;nan
14343;BME280;7255;53.596;9.960;2023-04-01T14:18:33;100155.78;;;6.14;nan
14343;BME280;7255;53.596;9.960;2023-04-01T14:21:23;100171.41;;;6.18;nan
14343;BME280;7255;53.596;9.960;2023-04-01T14:24:04;100175.06;;;6.10;nan
14343;BME280;7255;53.596;9.960;2023-04-01T14:26:57;100175.13;;;5.96;nan
14343;BME280;7255;53.596;9.960;2023-04-01T14:29:35;100175.87;;;6.17;nan
14343;BME280;7255;53.596;9.960;2023-04-01T14:32:11;100180.81;;;6.27;nan
14343;BME280;7255;53.596;9.960;2023-04-01T14:34:51;100186.97;;;6.27;nan
14343;BME280;7255;53.596;9.960;2023-04-01T14:37:47;100179.19;;;6.12;nan
14343;BME280;7255;53.596;9.960;2023-04-01T14:40:40;100192.72;;;6.18;nan
14343;BME280;7255;53.596;9.960;2023-04-01T14:43:42;100182.06;;;6.04;nan
14343;BME280;7255;53.596;9.960;2023-04-01T14:49:24;100206.66;;;6.26;nan
14343;BME280;7255;53.596;9.960;2023-04-01T14:52:04;100216.53;;;6.12;nan
14343;BME280;7255;53.596;9.960;2023-04-01T14:54:34;100216.94;;;6.09;nan
14343;BME280;7255;53.596;9.960;2023-04-01T14:57:10;100225.56;;;6.11;nan